Archival Weather

Václav Havel Intl Apt

Prague, Czechia (LKPR)

Report from: Monday, May 29, 2023 6:30 PM CEST
Current time: Saturday, March 2, 2024 10:32 AM CET

Current weather – Weather history – Daily summaries
Weather forecast

Temperature22.0°C (71.6°F)
Dew point4.0°C (39.2°F)
Winds 9 kts (4.6 m/s, 10.4 mph) Vrb
Winds variableWinds variable from North-Northwest (330°) to North-Northeast (30°)
Clouds Sky clear
Altimeter30.09 in.Hg (1019 mB)
Relative humidity31 %
Density altitude745 ft. (227 m)
Remarks Ceiling and visibility OK
No significant changes expected in the next two hours
Flight conditions Visual Meteorological Conditions
Raw dataLKPR 291630Z 01009KT 330V030 CAVOK 22/04 Q1019 NOSIG
An error has occurred. This application may no longer respond until reloaded. Reload 🗙